createdAt,value
2018-10-16T00:00:58.713Z,83.97
2018-10-16T00:03:27.201Z,85.06
2018-10-16T00:05:55.755Z,85.36
2018-10-16T00:08:24.252Z,86.26
2018-10-16T00:10:52.720Z,85.92
2018-10-16T00:13:21.171Z,84.83
2018-10-16T00:15:49.698Z,83.14
2018-10-16T00:18:18.142Z,83.92
2018-10-16T00:20:46.600Z,84.17
2018-10-16T00:23:15.064Z,83.59
2018-10-16T00:25:43.486Z,84.38
2018-10-16T00:28:11.968Z,84.11
2018-10-16T00:30:40.387Z,84.45
2018-10-16T00:33:08.926Z,84.55
2018-10-16T00:35:37.385Z,85.66
2018-10-16T00:38:05.893Z,85.89
2018-10-16T00:40:35.884Z,85.38
2018-10-16T00:43:05.463Z,84.62
2018-10-16T00:45:33.908Z,84.59
2018-10-16T00:48:02.367Z,85.06
2018-10-16T00:50:30.895Z,85.31
2018-10-16T00:52:59.320Z,85.20
2018-10-16T00:55:27.814Z,83.90
2018-10-16T00:57:56.271Z,84.51
2018-10-16T01:00:24.726Z,83.73
2018-10-16T01:02:53.114Z,84.65
2018-10-16T01:05:21.596Z,85.37
2018-10-16T01:07:50.044Z,85.20
2018-10-16T01:10:18.461Z,84.82
2018-10-16T01:12:46.946Z,86.08
2018-10-16T01:15:15.436Z,85.50
2018-10-16T01:17:43.944Z,85.83
2018-10-16T01:20:14.189Z,84.61
2018-10-16T01:22:43.101Z,84.90
2018-10-16T01:25:12.546Z,84.76
2018-10-16T01:27:41.208Z,84.31
2018-10-16T01:30:09.818Z,83.70
2018-10-16T01:32:38.671Z,84.67
2018-10-16T01:35:08.396Z,84.82
2018-10-16T01:37:37.004Z,85.23
2018-10-16T01:40:06.930Z,84.97
2018-10-16T01:42:35.372Z,84.93
2018-10-16T01:45:03.782Z,84.56
2018-10-16T01:47:32.251Z,85.45
2018-10-16T01:50:00.711Z,85.26
2018-10-16T01:52:29.117Z,85.16
2018-10-16T01:54:57.724Z,85.18
2018-10-16T01:57:26.215Z,84.70
2018-10-16T01:59:55.579Z,84.34
2018-10-16T02:02:24.365Z,84.34
2018-10-16T02:04:52.788Z,84.43
2018-10-16T02:07:21.286Z,84.67
2018-10-16T02:09:50.747Z,84.14
2018-10-16T02:12:19.203Z,85.67
2018-10-16T02:14:48.868Z,85.41
2018-10-16T02:17:17.881Z,85.33
2018-10-16T02:19:46.368Z,85.61
2018-10-16T02:22:15.352Z,85.70
2018-10-16T02:24:43.720Z,86.94
2018-10-16T02:27:12.275Z,86.03
2018-10-16T02:29:40.664Z,85.89
2018-10-16T02:32:09.523Z,85.49
2018-10-16T02:34:37.927Z,84.91
2018-10-16T02:37:07.154Z,85.17
2018-10-16T02:39:35.617Z,85.02
2018-10-16T02:42:04.127Z,85.17
2018-10-16T02:44:32.601Z,85.20
2018-10-16T02:47:01.046Z,86.11
2018-10-16T02:49:30.185Z,86.98
2018-10-16T02:51:58.620Z,85.64
2018-10-16T02:54:27.072Z,86.10
2018-10-16T02:56:55.523Z,86.38
2018-10-16T02:59:24.174Z,86.04
2018-10-16T03:01:52.598Z,86.35
2018-10-16T03:04:21.051Z,84.78
2018-10-16T03:06:49.547Z,84.84
2018-10-16T03:09:17.995Z,84.63
2018-10-16T03:11:46.402Z,84.60
2018-10-16T03:14:14.801Z,83.43
2018-10-16T03:16:43.500Z,83.15
2018-10-16T03:19:11.904Z,83.31
2018-10-16T03:21:40.351Z,84.51
2018-10-16T03:24:09.412Z,84.40
2018-10-16T03:26:38.358Z,84.78
2018-10-16T03:29:07.007Z,84.64
2018-10-16T03:31:35.455Z,84.08
2018-10-16T03:34:03.916Z,84.85
2018-10-16T03:36:32.363Z,83.83
2018-10-16T03:39:00.825Z,84.15
2018-10-16T03:41:29.252Z,84.58
2018-10-16T03:44:00.962Z,84.50
2018-10-16T03:46:30.013Z,84.47
2018-10-16T03:48:59.229Z,84.82
2018-10-16T03:51:27.630Z,85.12
2018-10-16T03:53:56.974Z,84.86
2018-10-16T03:56:26.293Z,85.24
2018-10-16T03:58:54.960Z,85.62
2018-10-16T04:01:24.693Z,85.98
2018-10-16T04:03:53.158Z,85.99
2018-10-16T04:06:22.136Z,85.44
2018-10-16T04:08:51.266Z,85.00
2018-10-16T04:11:20.003Z,85.00
2018-10-16T04:13:49.102Z,86.16
2018-10-16T04:16:17.579Z,86.29
2018-10-16T04:18:46.055Z,86.02
2018-10-16T04:21:14.496Z,85.79
2018-10-16T04:23:43.562Z,85.47
2018-10-16T04:26:12.656Z,85.65
2018-10-16T04:28:41.169Z,85.89
2018-10-16T04:31:10.847Z,85.99
2018-10-16T04:33:39.267Z,85.04
2018-10-16T04:36:07.737Z,85.31
2018-10-16T04:38:36.204Z,84.82
2018-10-16T04:41:04.991Z,85.86
2018-10-16T04:43:33.427Z,85.88
2018-10-16T04:46:01.956Z,85.27
2018-10-16T04:48:30.558Z,89.26
2018-10-16T04:50:59.640Z,90.45
2018-10-16T04:53:28.108Z,90.69
2018-10-16T04:55:56.531Z,90.44
2018-10-16T04:58:25.580Z,87.71
2018-10-16T05:00:53.975Z,86.14
2018-10-16T05:03:22.417Z,85.92
2018-10-16T05:05:50.884Z,85.63
2018-10-16T05:08:19.460Z,87.19
2018-10-16T05:10:49.568Z,88.89
2018-10-16T05:13:18.099Z,87.85
2018-10-16T05:15:47.080Z,89.14
2018-10-16T05:18:16.046Z,90.32
2018-10-16T05:20:44.546Z,86.77
2018-10-16T05:23:13.432Z,86.52
2018-10-16T05:25:41.931Z,86.70
2018-10-16T05:28:10.397Z,87.93
2018-10-16T05:30:38.946Z,87.01
2018-10-16T05:33:07.385Z,86.30
2018-10-16T05:35:35.859Z,87.17
2018-10-16T05:38:04.404Z,86.88
2018-10-16T05:40:32.889Z,86.21
2018-10-16T05:43:01.374Z,87.11
2018-10-16T05:45:32.380Z,85.68
2018-10-16T05:48:00.861Z,85.86
2018-10-16T05:50:29.300Z,85.85
2018-10-16T05:52:57.703Z,86.32
2018-10-16T05:55:26.168Z,85.43
2018-10-16T05:57:54.580Z,85.28
2018-10-16T06:00:44.541Z,84.59
2018-10-16T06:03:12.985Z,84.47
2018-10-16T06:05:41.473Z,85.15
2018-10-16T06:08:10.315Z,85.73
2018-10-16T06:10:38.797Z,85.71
2018-10-16T06:13:07.421Z,85.73
2018-10-16T06:15:35.854Z,84.72
2018-10-16T06:18:04.321Z,84.60
2018-10-16T06:20:32.810Z,85.96
2018-10-16T06:23:01.383Z,85.03
2018-10-16T06:25:29.890Z,84.94
2018-10-16T06:27:58.372Z,84.77
2018-10-16T06:30:26.866Z,85.15
2018-10-16T06:32:55.293Z,85.37
2018-10-16T06:35:23.823Z,84.97
2018-10-16T06:37:52.979Z,85.76
2018-10-16T06:40:21.388Z,85.83
2018-10-16T06:42:52.180Z,86.23
2018-10-16T06:45:20.703Z,85.88
2018-10-16T06:47:49.273Z,83.37
2018-10-16T06:50:18.153Z,86.74
2018-10-16T06:52:46.604Z,86.70
2018-10-16T06:55:15.098Z,85.41
2018-10-16T06:57:44.431Z,83.68
2018-10-16T07:00:13.001Z,83.96
2018-10-16T07:02:41.423Z,84.25
2018-10-16T07:05:10.608Z,81.56
2018-10-16T07:07:39.056Z,84.65
2018-10-16T07:10:08.785Z,84.40
2018-10-16T07:12:43.480Z,84.43
2018-10-16T07:15:11.913Z,86.57
2018-10-16T07:17:40.927Z,86.21
2018-10-16T07:20:09.869Z,86.32
2018-10-16T07:22:38.320Z,86.76
2018-10-16T07:25:07.643Z,83.38
2018-10-16T07:27:36.765Z,86.98
2018-10-16T07:30:06.500Z,81.19
2018-10-16T07:32:35.105Z,81.89
2018-10-16T07:35:03.541Z,82.82
2018-10-16T07:37:32.167Z,84.37
2018-10-16T07:40:01.550Z,84.93
2018-10-16T07:42:30.541Z,81.73
2018-10-16T07:44:59.036Z,79.01
2018-10-16T07:47:27.510Z,79.15
2018-10-16T07:49:55.943Z,80.43
2018-10-16T07:52:24.473Z,80.75
2018-10-16T07:54:52.883Z,78.36
2018-10-16T07:57:22.334Z,77.37
2018-10-16T07:59:51.561Z,79.30
2018-10-16T08:02:19.971Z,79.80
2018-10-16T08:04:50.405Z,77.70
2018-10-16T08:07:18.868Z,76.11
2018-10-16T08:09:47.272Z,75.56
2018-10-16T08:12:15.752Z,75.15
2018-10-16T08:14:44.346Z,75.72
2018-10-16T08:17:14.876Z,73.37
2018-10-16T08:19:43.347Z,73.79
2018-10-16T08:22:13.169Z,72.12
2018-10-16T08:24:42.481Z,72.45
2018-10-16T08:27:12.295Z,71.57
2018-10-16T08:29:40.743Z,69.77
2018-10-16T08:32:09.433Z,68.04
2018-10-16T08:34:37.891Z,66.05
2018-10-16T08:37:10.284Z,67.16
2018-10-16T08:39:41.193Z,62.13
2018-10-16T08:42:22.793Z,61.30
2018-10-16T08:45:28.015Z,60.15
2018-10-16T08:48:08.796Z,62.82
2018-10-16T08:50:49.469Z,60.07
2018-10-16T08:53:17.947Z,59.73
2018-10-16T08:55:47.359Z,58.26
2018-10-16T08:58:15.831Z,59.29
2018-10-16T09:00:44.365Z,59.41
2018-10-16T09:03:12.865Z,58.62
2018-10-16T09:05:41.464Z,61.25
2018-10-16T09:08:09.965Z,59.46
2018-10-16T09:10:38.484Z,58.86
2018-10-16T09:13:07.035Z,57.89
2018-10-16T09:15:35.488Z,58.18
2018-10-16T09:18:04.041Z,58.08
2018-10-16T09:20:32.528Z,57.27
2018-10-16T09:23:01.052Z,57.76
2018-10-16T09:25:29.494Z,57.31
2018-10-16T09:27:57.999Z,56.71
2018-10-16T09:30:28.720Z,55.43
2018-10-16T09:32:57.216Z,57.10
2018-10-16T09:35:25.655Z,57.24
2018-10-16T09:37:54.133Z,56.09
2018-10-16T09:40:22.617Z,55.65
2018-10-16T09:42:51.091Z,55.93
2018-10-16T09:45:19.541Z,57.08
2018-10-16T09:47:48.088Z,55.95
2018-10-16T09:50:16.597Z,55.15
2018-10-16T09:52:45.112Z,53.54
2018-10-16T09:55:13.580Z,53.30
2018-10-16T09:57:42.844Z,50.14
2018-10-16T10:00:17.455Z,50.49
2018-10-16T10:02:45.951Z,53.40
2018-10-16T10:05:15.007Z,52.27
2018-10-16T10:07:43.652Z,51.00
2018-10-16T10:10:12.063Z,51.04
2018-10-16T10:12:40.793Z,52.80
2018-10-16T10:15:09.482Z,52.83
2018-10-16T10:17:37.979Z,52.87
2018-10-16T10:20:07.304Z,52.14
2018-10-16T10:22:35.832Z,52.50
2018-10-16T10:25:04.474Z,51.43
2018-10-16T10:27:33.551Z,51.19
2018-10-16T10:30:02.590Z,50.98
2018-10-16T10:32:31.548Z,49.14
2018-10-16T10:35:00.243Z,48.73
2018-10-16T10:37:28.956Z,49.87
2018-10-16T10:39:57.443Z,50.52
2018-10-16T10:42:25.886Z,51.16
2018-10-16T10:44:54.387Z,49.16
2018-10-16T10:47:22.840Z,47.95
2018-10-16T10:49:51.851Z,47.37
2018-10-16T10:52:20.255Z,45.46
2018-10-16T10:54:49.263Z,46.21
2018-10-16T10:57:17.866Z,45.42
2018-10-16T10:59:46.343Z,46.14
2018-10-16T11:02:14.804Z,43.34
2018-10-16T11:04:43.262Z,42.99
2018-10-16T11:07:11.737Z,42.07
2018-10-16T11:09:40.222Z,41.82
2018-10-16T11:12:08.736Z,40.96
2018-10-16T11:14:38.299Z,41.55
2018-10-16T11:17:06.923Z,41.14
2018-10-16T11:19:35.374Z,40.24
2018-10-16T11:22:03.824Z,39.57
2018-10-16T11:24:32.631Z,39.76
2018-10-16T11:27:01.208Z,40.02
2018-10-16T11:29:29.732Z,38.68
2018-10-16T11:31:58.393Z,37.36
2018-10-16T11:34:26.956Z,36.83
2018-10-16T11:36:55.408Z,36.56
2018-10-16T11:39:24.032Z,36.12
2018-10-16T11:41:53.090Z,36.83
2018-10-16T11:44:21.599Z,36.19
2018-10-16T11:46:50.371Z,35.93
2018-10-16T11:49:18.841Z,35.64
2018-10-16T11:51:47.353Z,37.59
2018-10-16T11:54:15.895Z,37.49
2018-10-16T11:56:44.412Z,38.68
2018-10-16T11:59:13.390Z,38.20
2018-10-16T12:01:41.941Z,37.66
2018-10-16T12:04:10.644Z,37.81
2018-10-16T12:06:39.152Z,36.87
2018-10-16T12:09:09.764Z,37.47
2018-10-16T12:11:39.100Z,37.96
2018-10-16T12:14:09.070Z,38.02
2018-10-16T12:18:48.042Z,37.23
2018-10-16T12:21:18.629Z,36.26
2018-10-16T12:23:47.392Z,35.75
2018-10-16T12:26:16.538Z,37.80
2018-10-16T12:28:45.115Z,38.09
2018-10-16T12:31:13.689Z,38.91
2018-10-16T12:33:42.199Z,38.68
2018-10-16T12:36:11.805Z,40.57
2018-10-16T12:38:40.387Z,40.36
2018-10-16T12:41:08.889Z,39.57
2018-10-16T12:43:37.570Z,38.59
2018-10-16T12:46:06.342Z,37.79
2018-10-16T12:48:34.799Z,36.11
2018-10-16T12:51:03.386Z,34.20
2018-10-16T12:53:32.199Z,34.80
2018-10-16T12:56:00.938Z,34.60
2018-10-16T12:58:29.488Z,34.43
2018-10-16T13:00:58.032Z,34.38
2018-10-16T13:03:26.525Z,34.24
2018-10-16T13:05:55.066Z,34.93
2018-10-16T13:08:23.580Z,34.97
2018-10-16T13:10:52.077Z,35.06
2018-10-16T13:13:21.287Z,36.34
2018-10-16T13:15:49.984Z,35.96
2018-10-16T13:18:18.445Z,36.36
2018-10-16T13:20:46.940Z,37.25
2018-10-16T13:23:15.701Z,37.11
2018-10-16T13:25:44.269Z,37.16
2018-10-16T13:28:12.902Z,37.41
2018-10-16T13:30:41.331Z,36.95
2018-10-16T13:33:10.900Z,36.15
2018-10-16T13:35:39.368Z,36.09
2018-10-16T13:38:07.979Z,36.07
2018-10-16T13:40:36.852Z,36.51
2018-10-16T13:43:06.295Z,36.86
2018-10-16T13:45:34.963Z,36.94
2018-10-16T13:48:03.438Z,36.79
2018-10-16T13:50:31.849Z,36.04
2018-10-16T13:53:00.387Z,37.06
2018-10-16T13:55:28.944Z,36.80
2018-10-16T13:57:57.491Z,36.64
2018-10-16T14:00:25.988Z,37.17
2018-10-16T14:02:54.471Z,37.66
2018-10-16T14:05:23.378Z,37.50
2018-10-16T14:07:51.886Z,37.92
2018-10-16T14:10:20.342Z,37.02
2018-10-16T14:12:49.263Z,38.37
2018-10-16T14:15:18.047Z,37.92
2018-10-16T14:17:46.549Z,38.89
2018-10-16T14:20:15.191Z,38.05
2018-10-16T14:22:43.931Z,37.71
2018-10-16T14:25:13.808Z,37.11
2018-10-16T14:27:42.644Z,37.35
2018-10-16T14:30:12.740Z,38.18
2018-10-16T14:35:09.917Z,37.89
2018-10-16T14:37:39.137Z,38.26
2018-10-16T14:40:09.814Z,38.73
2018-10-16T14:42:38.331Z,38.09
2018-10-16T14:45:08.797Z,38.94
2018-10-16T14:47:37.632Z,39.95
2018-10-16T14:50:07.064Z,38.01
2018-10-16T14:52:35.773Z,38.57
2018-10-16T14:55:04.786Z,39.68
2018-10-16T14:57:33.347Z,39.62
2018-10-16T15:00:02.110Z,39.92
2018-10-16T15:02:30.576Z,39.29
2018-10-16T15:04:59.082Z,40.57
2018-10-16T15:07:27.635Z,41.18
2018-10-16T15:09:56.260Z,41.81
2018-10-16T15:12:30.572Z,42.63
2018-10-16T15:14:59.218Z,44.17
2018-10-16T15:17:28.360Z,46.08
2018-10-16T15:19:57.036Z,47.79
2018-10-16T15:22:26.776Z,49.28
2018-10-16T15:24:55.224Z,50.74
2018-10-16T15:27:23.798Z,50.71
2018-10-16T15:29:53.016Z,51.14
2018-10-16T15:32:21.488Z,51.94
2018-10-16T15:34:49.968Z,53.19
2018-10-16T15:37:18.600Z,53.53
2018-10-16T15:39:47.093Z,53.64
2018-10-16T15:42:15.569Z,54.21
2018-10-16T15:44:44.500Z,55.02
2018-10-16T15:47:12.895Z,55.54
2018-10-16T15:49:41.571Z,56.33
2018-10-16T15:52:10.993Z,57.56
2018-10-16T15:54:39.484Z,57.69
2018-10-16T15:57:08.902Z,58.28
2018-10-16T15:59:37.586Z,58.69
2018-10-16T16:02:06.320Z,59.48
2018-10-16T16:04:34.962Z,59.55
2018-10-16T16:07:03.468Z,59.69
2018-10-16T16:09:31.962Z,60.34
2018-10-16T16:12:00.624Z,61.88
2018-10-16T16:14:29.398Z,62.25
2018-10-16T16:16:58.535Z,62.81
2018-10-16T16:19:27.577Z,63.69
2018-10-16T16:21:56.331Z,63.58
2018-10-16T16:24:25.004Z,64.36
2018-10-16T16:26:53.568Z,64.93
2018-10-16T16:29:22.061Z,65.81
2018-10-16T16:31:51.711Z,66.08
2018-10-16T16:34:20.328Z,66.85
2018-10-16T16:36:48.877Z,66.60
2018-10-16T16:39:17.565Z,67.75
2018-10-16T16:41:46.069Z,68.28
2018-10-16T16:44:14.855Z,67.63
2018-10-16T16:46:43.403Z,68.48
2018-10-16T16:49:12.539Z,68.44
2018-10-16T16:51:41.109Z,69.05
2018-10-16T16:54:10.196Z,69.30
2018-10-16T16:56:38.723Z,70.03
2018-10-16T16:59:07.487Z,70.61
2018-10-16T17:01:35.979Z,70.35
2018-10-16T17:04:05.853Z,70.81
2018-10-16T17:06:34.262Z,71.05
2018-10-16T17:09:03.040Z,71.21
2018-10-16T17:11:31.557Z,71.67
2018-10-16T17:14:00.325Z,72.78
2018-10-16T17:16:29.182Z,72.91
2018-10-16T17:18:57.790Z,72.72
2018-10-16T17:21:26.841Z,73.06
2018-10-16T17:23:55.421Z,73.49
2018-10-16T17:26:24.201Z,73.00
2018-10-16T17:28:52.714Z,73.36
2018-10-16T17:31:21.265Z,73.58
2018-10-16T17:33:50.287Z,73.63
2018-10-16T17:36:18.810Z,74.99
2018-10-16T17:38:47.395Z,75.04
2018-10-16T17:41:16.616Z,75.27
2018-10-16T17:43:45.221Z,75.20
2018-10-16T17:46:13.956Z,75.21
2018-10-16T17:48:42.679Z,75.59
2018-10-16T17:51:11.400Z,76.21
2018-10-16T17:53:39.899Z,76.65
2018-10-16T17:56:10.072Z,76.30
2018-10-16T17:58:38.509Z,76.50
2018-10-16T18:01:07.173Z,76.50
2018-10-16T18:03:35.662Z,76.71
2018-10-16T18:06:04.106Z,76.84
2018-10-16T18:08:33.240Z,77.54
2018-10-16T18:11:01.722Z,77.36
2018-10-16T18:13:30.119Z,77.29
2018-10-16T18:15:58.602Z,78.74
2018-10-16T18:18:27.069Z,78.40
2018-10-16T18:20:55.575Z,78.40
2018-10-16T18:23:24.025Z,78.18
2018-10-16T18:25:52.436Z,78.37
2018-10-16T18:28:20.856Z,79.38
2018-10-16T18:30:49.344Z,79.64
2018-10-16T18:33:18.383Z,79.62
2018-10-16T18:35:46.855Z,79.70
2018-10-16T18:38:15.278Z,79.61
2018-10-16T18:40:43.725Z,80.10
2018-10-16T18:43:12.220Z,79.81
2018-10-16T18:45:40.663Z,80.25
2018-10-16T18:48:09.123Z,79.83
2018-10-16T18:50:37.658Z,79.47
2018-10-16T18:53:06.748Z,79.56
2018-10-16T18:55:35.536Z,79.71
2018-10-16T18:58:03.984Z,79.34
2018-10-16T19:00:32.514Z,79.29
2018-10-16T19:03:01.057Z,79.07
2018-10-16T19:05:30.229Z,78.48
2018-10-16T19:07:59.023Z,79.87
2018-10-16T19:10:27.773Z,80.20
2018-10-16T19:12:56.428Z,80.35
2018-10-16T19:15:25.127Z,79.60
2018-10-16T19:17:53.905Z,80.56
2018-10-16T19:20:22.759Z,79.87
2018-10-16T19:22:51.236Z,80.87
2018-10-16T19:25:20.733Z,81.42
2018-10-16T19:27:49.412Z,80.70
2018-10-16T19:30:17.951Z,81.82
2018-10-16T19:32:46.539Z,81.46
2018-10-16T19:35:16.024Z,80.45
2018-10-16T19:37:44.776Z,79.31
2018-10-16T19:40:13.315Z,80.65
2018-10-16T19:42:42.271Z,81.24
2018-10-16T19:45:11.367Z,80.87
2018-10-16T19:47:40.294Z,81.26
2018-10-16T19:50:09.392Z,80.75
2018-10-16T19:52:38.438Z,81.08
2018-10-16T19:55:07.147Z,81.17
2018-10-16T19:57:35.840Z,81.19
2018-10-16T20:00:04.484Z,80.96
2018-10-16T20:02:32.892Z,81.40
2018-10-16T20:05:01.356Z,82.09
2018-10-16T20:07:30.324Z,81.92
2018-10-16T20:09:58.799Z,82.48
2018-10-16T20:12:27.282Z,82.19
2018-10-16T20:14:56.287Z,82.62
2018-10-16T20:17:24.761Z,81.84
2018-10-16T20:19:53.222Z,81.91
2018-10-16T20:22:22.262Z,82.52
2018-10-16T20:24:51.518Z,82.77
2018-10-16T20:27:19.819Z,82.79
2018-10-16T20:29:49.385Z,82.42
2018-10-16T20:32:17.807Z,82.78
2018-10-16T20:34:46.236Z,82.72
2018-10-16T20:37:14.721Z,82.54
2018-10-16T20:39:43.822Z,83.02
2018-10-16T20:42:12.364Z,83.01
2018-10-16T20:44:40.847Z,82.61
2018-10-16T20:47:09.268Z,82.27
2018-10-16T20:49:37.733Z,82.78
2018-10-16T20:52:06.199Z,83.37
2018-10-16T20:54:34.705Z,83.59
2018-10-16T20:57:03.150Z,83.60
2018-10-16T20:59:31.653Z,83.11
2018-10-16T21:02:00.180Z,83.26
2018-10-16T21:04:29.511Z,83.44
2018-10-16T21:06:57.987Z,83.17
2018-10-16T21:09:26.468Z,83.34
2018-10-16T21:11:54.925Z,83.56
2018-10-16T21:14:23.398Z,83.90
2018-10-16T21:16:52.364Z,84.29
2018-10-16T21:19:20.909Z,83.07
2018-10-16T21:21:49.495Z,84.02
2018-10-16T21:24:17.927Z,84.93
2018-10-16T21:26:56.380Z,85.02
2018-10-16T21:29:25.322Z,84.24
2018-10-16T21:31:54.522Z,84.87
2018-10-16T21:34:22.903Z,84.34
2018-10-16T21:36:51.295Z,84.15
2018-10-16T21:39:20.348Z,85.07
2018-10-16T21:41:48.878Z,85.05
2018-10-16T21:44:17.292Z,84.38
2018-10-16T21:46:45.687Z,83.50
2018-10-16T21:49:14.205Z,83.61
2018-10-16T21:51:42.779Z,84.65
2018-10-16T21:54:11.210Z,84.78
2018-10-16T21:56:40.493Z,85.18
2018-10-16T21:59:09.085Z,84.33
2018-10-16T22:01:42.776Z,84.59
2018-10-16T22:04:11.367Z,84.38
2018-10-16T22:06:39.809Z,84.77
2018-10-16T22:09:10.765Z,84.71
2018-10-16T22:11:39.168Z,85.70
2018-10-16T22:14:08.127Z,86.04
2018-10-16T22:16:36.552Z,86.83
2018-10-16T22:19:05.796Z,86.18
2018-10-16T22:21:34.212Z,84.54
2018-10-16T22:24:03.275Z,84.33
2018-10-16T22:26:31.988Z,84.41
2018-10-16T22:29:01.208Z,85.04
2018-10-16T22:31:29.743Z,85.46
2018-10-16T22:33:59.031Z,84.73
2018-10-16T22:36:27.655Z,84.93
2018-10-16T22:38:56.982Z,85.26
2018-10-16T22:41:25.750Z,85.33
2018-10-16T22:43:54.534Z,85.08
2018-10-16T22:46:23.347Z,84.88
2018-10-16T22:48:51.861Z,84.81
2018-10-16T22:51:21.100Z,85.16
2018-10-16T22:53:49.781Z,84.94
2018-10-16T22:56:19.454Z,85.13
2018-10-16T22:58:48.041Z,85.22
2018-10-16T23:01:17.866Z,84.74
2018-10-16T23:03:46.860Z,86.03
2018-10-16T23:06:15.590Z,84.93
2018-10-16T23:08:44.175Z,86.25
2018-10-16T23:11:13.460Z,85.84
2018-10-16T23:13:42.066Z,85.46
2018-10-16T23:16:11.792Z,85.78
2018-10-16T23:18:40.262Z,86.86
2018-10-16T23:21:09.495Z,86.76
2018-10-16T23:23:37.911Z,85.53
2018-10-16T23:26:07.015Z,85.42
2018-10-16T23:28:35.469Z,84.82
2018-10-16T23:31:03.931Z,84.67
2018-10-16T23:33:32.576Z,86.01
2018-10-16T23:36:01.122Z,84.82
2018-10-16T23:38:30.035Z,86.09
2018-10-16T23:40:58.542Z,86.55
2018-10-16T23:43:27.253Z,86.44
2018-10-16T23:45:55.815Z,86.69
2018-10-16T23:48:24.856Z,85.43
2018-10-16T23:50:53.319Z,85.33
2018-10-16T23:53:21.805Z,88.25
2018-10-16T23:55:50.939Z,88.25
2018-10-16T23:58:19.323Z,88.81
